sensor_id;sensor_type;location;lat;lon;timestamp;pressure;altitude;pressure_sealevel;temperature;humidity
74103;BME280;62853;46.166;3.640;2023-02-01T00:01:38;101992.00;;;3.25;100.00
74103;BME280;62853;46.166;3.640;2023-02-01T00:04:04;101981.66;;;3.14;100.00
74103;BME280;62853;46.166;3.640;2023-02-01T00:06:29;101973.00;;;3.14;100.00
74103;BME280;62853;46.166;3.640;2023-02-01T00:08:55;101968.63;;;3.19;100.00
74103;BME280;62853;46.166;3.640;2023-02-01T00:11:22;101975.56;;;3.17;100.00
74103;BME280;62853;46.166;3.640;2023-02-01T00:13:48;101962.63;;;3.05;100.00
74103;BME280;62853;46.166;3.640;2023-02-01T00:16:22;101969.59;;;3.01;100.00
74103;BME280;62853;46.166;3.640;2023-02-01T00:18:50;101963.44;;;3.11;100.00
74103;BME280;62853;46.166;3.640;2023-02-01T00:21:18;101972.16;;;3.07;100.00
74103;BME280;62853;46.166;3.640;2023-02-01T00:23:45;101960.88;;;3.05;100.00
74103;BME280;62853;46.166;3.640;2023-02-01T00:29:03;101937.44;;;3.07;100.00
74103;BME280;62853;46.166;3.640;2023-02-01T00:31:29;101944.34;;;3.15;100.00
74103;BME280;62853;46.166;3.640;2023-02-01T00:33:55;101942.59;;;3.21;100.00
74103;BME280;62853;46.166;3.640;2023-02-01T00:36:20;101939.09;;;3.19;100.00
74103;BME280;62853;46.166;3.640;2023-02-01T00:38:46;101946.00;;;3.29;100.00
74103;BME280;62853;46.166;3.640;2023-02-01T00:41:14;101938.16;;;3.30;100.00
74103;BME280;62853;46.166;3.640;2023-02-01T00:43:40;101932.09;;;3.30;100.00
74103;BME280;62853;46.166;3.640;2023-02-01T00:46:06;101924.28;;;3.30;100.00
74103;BME280;62853;46.166;3.640;2023-02-01T00:48:31;101925.97;;;3.35;100.00
74103;BME280;62853;46.166;3.640;2023-02-01T00:51:00;101914.81;;;3.18;100.00
74103;BME280;62853;46.166;3.640;2023-02-01T00:53:26;101926.06;;;3.20;100.00
74103;BME280;62853;46.166;3.640;2023-02-01T00:55:51;101927.03;;;3.07;100.00
74103;BME280;62853;46.166;3.640;2023-02-01T00:58:17;101924.50;;;2.94;100.00
74103;BME280;62853;46.166;3.640;2023-02-01T01:00:42;101942.72;;;2.94;100.00
74103;BME280;62853;46.166;3.640;2023-02-01T01:03:07;101940.19;;;2.87;100.00
74103;BME280;62853;46.166;3.640;2023-02-01T01:05:48;101930.66;;;2.76;100.00
74103;BME280;62853;46.166;3.640;2023-02-01T01:08:15;101939.38;;;2.69;100.00
74103;BME280;62853;46.166;3.640;2023-02-01T01:10:41;101940.22;;;2.70;100.00
74103;BME280;62853;46.166;3.640;2023-02-01T01:13:06;101953.22;;;2.73;100.00
74103;BME280;62853;46.166;3.640;2023-02-01T01:15:36;101954.16;;;2.63;100.00
74103;BME280;62853;46.166;3.640;2023-02-01T01:18:02;101953.28;;;2.57;100.00
74103;BME280;62853;46.166;3.640;2023-02-01T01:20:28;101952.44;;;2.60;100.00
74103;BME280;62853;46.166;3.640;2023-02-01T01:22:54;101957.63;;;2.63;100.00
74103;BME280;62853;46.166;3.640;2023-02-01T01:25:19;101939.44;;;2.62;100.00
74103;BME280;62853;46.166;3.640;2023-02-01T01:27:45;101948.03;;;2.70;100.00
74103;BME280;62853;46.166;3.640;2023-02-01T01:30:10;101930.72;;;2.70;100.00
74103;BME280;62853;46.166;3.640;2023-02-01T01:32:36;101940.22;;;2.71;100.00
74103;BME280;62853;46.166;3.640;2023-02-01T01:35:01;101939.38;;;2.68;100.00
74103;BME280;62853;46.166;3.640;2023-02-01T01:37:26;101944.56;;;2.77;100.00
74103;BME280;62853;46.166;3.640;2023-02-01T01:39:52;101941.09;;;2.75;100.00
74103;BME280;62853;46.166;3.640;2023-02-01T01:42:17;101936.78;;;2.71;100.00
74103;BME280;62853;46.166;3.640;2023-02-01T01:45:04;101932.41;;;2.71;100.00
74103;BME280;62853;46.166;3.640;2023-02-01T01:47:39;101950.63;;;2.74;100.00
74103;BME280;62853;46.166;3.640;2023-02-01T01:50:10;101940.22;;;2.79;100.00
74103;BME280;62853;46.166;3.640;2023-02-01T01:52:36;101951.47;;;2.78;100.00
74103;BME280;62853;46.166;3.640;2023-02-01T01:55:03;101958.44;;;2.73;100.00
74103;BME280;62853;46.166;3.640;2023-02-01T01:57:36;101950.59;;;2.82;100.00
74103;BME280;62853;46.166;3.640;2023-02-01T02:00:06;101953.22;;;2.70;100.00
74103;BME280;62853;46.166;3.640;2023-02-01T02:02:33;101948.94;;;2.59;100.00
74103;BME280;62853;46.166;3.640;2023-02-01T02:04:59;101961.94;;;2.58;100.00
74103;BME280;62853;46.166;3.640;2023-02-01T02:07:28;101951.59;;;2.46;100.00
74103;BME280;62853;46.166;3.640;2023-02-01T02:09:55;101956.78;;;2.52;100.00
74103;BME280;62853;46.166;3.640;2023-02-01T02:12:21;101960.28;;;2.45;100.00
74103;BME280;62853;46.166;3.640;2023-02-01T02:14:47;101944.66;;;2.46;100.00
74103;BME280;62853;46.166;3.640;2023-02-01T02:39:06;101908.81;;;3.07;100.00
74103;BME280;62853;46.166;3.640;2023-02-01T02:44:49;101891.59;;;2.86;100.00
74103;BME280;62853;46.166;3.640;2023-02-01T02:50:22;101901.94;;;2.93;100.00
74103;BME280;62853;46.166;3.640;2023-02-01T02:53:16;101894.13;;;2.96;100.00
74103;BME280;62853;46.166;3.640;2023-02-01T02:56:03;101903.66;;;3.04;100.00
74103;BME280;62853;46.166;3.640;2023-02-01T02:58:48;101900.09;;;3.15;100.00
74103;BME280;62853;46.166;3.640;2023-02-01T03:01:33;101907.88;;;3.17;100.00
74103;BME280;62853;46.166;3.640;2023-02-01T03:04:17;101904.44;;;3.12;100.00
74103;BME280;62853;46.166;3.640;2023-02-01T03:06:43;101891.34;;;3.24;100.00
74103;BME280;62853;46.166;3.640;2023-02-01T03:09:31;101887.81;;;3.33;100.00
74103;BME280;62853;46.166;3.640;2023-02-01T03:12:06;101889.56;;;3.32;100.00
74103;BME280;62853;46.166;3.640;2023-02-01T03:14:57;101879.19;;;3.26;100.00
74103;BME280;62853;46.166;3.640;2023-02-01T03:17:30;101877.44;;;3.28;100.00
74103;BME280;62853;46.166;3.640;2023-02-01T03:20:00;101886.22;;;3.13;100.00
74103;BME280;62853;46.166;3.640;2023-02-01T03:22:28;101887.97;;;3.13;100.00
74103;BME280;62853;46.166;3.640;2023-02-01T03:25:02;101885.31;;;3.19;100.00
74103;BME280;62853;46.166;3.640;2023-02-01T03:27:33;101887.94;;;3.14;100.00
74103;BME280;62853;46.166;3.640;2023-02-01T03:32:32;101880.13;;;3.19;100.00
74103;BME280;62853;46.166;3.640;2023-02-01T03:35:18;101893.16;;;3.16;100.00
74103;BME280;62853;46.166;3.640;2023-02-01T03:37:49;101894.94;;;3.08;100.00
74103;BME280;62853;46.166;3.640;2023-02-01T03:40:16;101894.00;;;3.16;100.00
74103;BME280;62853;46.166;3.640;2023-02-01T03:42:48;101878.34;;;3.21;100.00
74103;BME280;62853;46.166;3.640;2023-02-01T03:45:27;101876.63;;;3.20;100.00
74103;BME280;62853;46.166;3.640;2023-02-01T03:47:58;101883.56;;;3.20;100.00
74103;BME280;62853;46.166;3.640;2023-02-01T03:50:26;101873.25;;;3.10;100.00
74103;BME280;62853;46.166;3.640;2023-02-01T03:52:58;101875.88;;;3.06;100.00
74103;BME280;62853;46.166;3.640;2023-02-01T03:55:27;101883.72;;;2.95;100.00
74103;BME280;62853;46.166;3.640;2023-02-01T03:58:13;101895.03;;;2.94;100.00
74103;BME280;62853;46.166;3.640;2023-02-01T04:00:40;101895.06;;;2.89;100.00
74103;BME280;62853;46.166;3.640;2023-02-01T04:03:07;101890.69;;;2.93;100.00
74103;BME280;62853;46.166;3.640;2023-02-01T04:05:33;101886.38;;;2.89;100.00
74103;BME280;62853;46.166;3.640;2023-02-01T04:07:59;101888.06;;;2.94;100.00
74103;BME280;62853;46.166;3.640;2023-02-01T04:10:25;101877.72;;;2.87;100.00
74103;BME280;62853;46.166;3.640;2023-02-01T04:12:50;101889.84;;;2.86;100.00
74103;BME280;62853;46.166;3.640;2023-02-01T04:15:16;101885.56;;;2.77;100.00
74103;BME280;62853;46.166;3.640;2023-02-01T04:17:41;101876.00;;;2.84;100.00
74103;BME280;62853;46.166;3.640;2023-02-01T04:20:07;101876.84;;;2.88;100.00
74103;BME280;62853;46.166;3.640;2023-02-01T04:22:34;101878.59;;;2.87;100.00
74103;BME280;62853;46.166;3.640;2023-02-01T04:24:59;101861.22;;;2.89;100.00
74103;BME280;62853;46.166;3.640;2023-02-01T04:27:25;101850.84;;;2.85;100.00
74103;BME280;62853;46.166;3.640;2023-02-01T04:29:50;101864.75;;;2.82;100.00
74103;BME280;62853;46.166;3.640;2023-02-01T04:32:16;101860.38;;;2.84;100.00
74103;BME280;62853;46.166;3.640;2023-02-01T04:34:42;101870.81;;;2.76;100.00
74103;BME280;62853;46.166;3.640;2023-02-01T04:37:07;101875.16;;;2.77;100.00
74103;BME280;62853;46.166;3.640;2023-02-01T04:39:33;101875.16;;;2.79;100.00
74103;BME280;62853;46.166;3.640;2023-02-01T04:41:58;101877.75;;;2.81;100.00
74103;BME280;62853;46.166;3.640;2023-02-01T04:44:24;101882.97;;;2.82;100.00
74103;BME280;62853;46.166;3.640;2023-02-01T04:46:49;101876.03;;;2.76;100.00
74103;BME280;62853;46.166;3.640;2023-02-01T04:49:15;101878.69;;;2.73;100.00
74103;BME280;62853;46.166;3.640;2023-02-01T04:51:41;101871.81;;;2.62;100.00
74103;BME280;62853;46.166;3.640;2023-02-01T04:54:07;101875.25;;;2.64;100.00
74103;BME280;62853;46.166;3.640;2023-02-01T04:56:33;101876.09;;;2.66;100.00
74103;BME280;62853;46.166;3.640;2023-02-01T04:59:00;101875.28;;;2.59;100.00
74103;BME280;62853;46.166;3.640;2023-02-01T05:01:27;101881.38;;;2.56;100.00
74103;BME280;62853;46.166;3.640;2023-02-01T05:03:53;101883.91;;;2.66;100.00
74103;BME280;62853;46.166;3.640;2023-02-01T05:06:18;101885.66;;;2.64;100.00
74103;BME280;62853;46.166;3.640;2023-02-01T05:08:43;101891.72;;;2.66;100.00
74103;BME280;62853;46.166;3.640;2023-02-01T05:11:09;101900.34;;;2.77;100.00
74103;BME280;62853;46.166;3.640;2023-02-01T05:13:59;101894.28;;;2.75;100.00
74103;BME280;62853;46.166;3.640;2023-02-01T05:16:24;101890.78;;;2.79;100.00
74103;BME280;62853;46.166;3.640;2023-02-01T05:18:50;101885.59;;;2.74;100.00
74103;BME280;62853;46.166;3.640;2023-02-01T05:21:16;101885.59;;;2.70;100.00
74103;BME280;62853;46.166;3.640;2023-02-01T05:23:41;101887.31;;;2.77;100.00
74103;BME280;62853;46.166;3.640;2023-02-01T05:26:25;101889.13;;;2.63;100.00
74103;BME280;62853;46.166;3.640;2023-02-01T05:28:51;101874.34;;;2.72;100.00
74103;BME280;62853;46.166;3.640;2023-02-01T05:31:16;101875.19;;;2.73;100.00
74103;BME280;62853;46.166;3.640;2023-02-01T05:33:42;101868.31;;;2.66;100.00
74103;BME280;62853;46.166;3.640;2023-02-01T05:36:07;101863.84;;;2.82;100.00
74103;BME280;62853;46.166;3.640;2023-02-01T05:38:32;101863.78;;;2.97;100.00
74103;BME280;62853;46.166;3.640;2023-02-01T05:40:58;101867.16;;;3.07;100.00
74103;BME280;62853;46.166;3.640;2023-02-01T05:43:23;101860.19;;;3.13;100.00
74103;BME280;62853;46.166;3.640;2023-02-01T05:45:49;101873.97;;;3.28;100.00
74103;BME280;62853;46.166;3.640;2023-02-01T05:48:14;101874.69;;;3.44;100.00
74103;BME280;62853;46.166;3.640;2023-02-01T05:50:39;101878.09;;;3.53;100.00
74103;BME280;62853;46.166;3.640;2023-02-01T05:53:05;101874.50;;;3.67;100.00
74103;BME280;62853;46.166;3.640;2023-02-01T05:55:30;101872.56;;;3.84;100.00
74103;BME280;62853;46.166;3.640;2023-02-01T05:57:55;101882.16;;;3.81;100.00
74103;BME280;62853;46.166;3.640;2023-02-01T06:00:22;101874.44;;;3.75;100.00
74103;BME280;62853;46.166;3.640;2023-02-01T06:02:47;101877.06;;;3.71;100.00
74103;BME280;62853;46.166;3.640;2023-02-01T06:05:12;101878.66;;;3.88;100.00
74103;BME280;62853;46.166;3.640;2023-02-01T06:07:38;101876.91;;;3.88;100.00
74103;BME280;62853;46.166;3.640;2023-02-01T06:10:04;101876.13;;;3.79;100.00
74103;BME280;62853;46.166;3.640;2023-02-01T06:12:29;101869.16;;;3.81;100.00
74103;BME280;62853;46.166;3.640;2023-02-01T06:14:55;101866.66;;;3.71;100.00
74103;BME280;62853;46.166;3.640;2023-02-01T06:17:20;101869.16;;;3.78;100.00
74103;BME280;62853;46.166;3.640;2023-02-01T06:19:46;101860.53;;;3.72;100.00
74103;BME280;62853;46.166;3.640;2023-02-01T06:22:13;101872.69;;;3.73;100.00
74103;BME280;62853;46.166;3.640;2023-02-01T06:24:39;101874.44;;;3.75;100.00
74103;BME280;62853;46.166;3.640;2023-02-01T06:27:06;101875.25;;;3.81;100.00
74103;BME280;62853;46.166;3.640;2023-02-01T06:29:32;101886.47;;;3.88;100.00
74103;BME280;62853;46.166;3.640;2023-02-01T06:31:57;101882.09;;;3.88;100.00
74103;BME280;62853;46.166;3.640;2023-02-01T06:34:22;101882.13;;;3.85;100.00
74103;BME280;62853;46.166;3.640;2023-02-01T06:36:48;101882.16;;;3.84;100.00
74103;BME280;62853;46.166;3.640;2023-02-01T06:39:14;101888.28;;;3.80;100.00
74103;BME280;62853;46.166;3.640;2023-02-01T06:41:50;101895.34;;;3.67;100.00
74103;BME280;62853;46.166;3.640;2023-02-01T06:44:15;101893.69;;;3.58;100.00
74103;BME280;62853;46.166;3.640;2023-02-01T06:46:41;101897.97;;;3.62;100.00
74103;BME280;62853;46.166;3.640;2023-02-01T06:49:06;101900.50;;;3.73;100.00
74103;BME280;62853;46.166;3.640;2023-02-01T06:51:31;101899.56;;;3.79;100.00
74103;BME280;62853;46.166;3.640;2023-02-01T06:53:57;101898.66;;;3.83;100.00
74103;BME280;62853;46.166;3.640;2023-02-01T06:56:22;101908.22;;;3.81;100.00
74103;BME280;62853;46.166;3.640;2023-02-01T06:58:48;101902.16;;;3.80;100.00
74103;BME280;62853;46.166;3.640;2023-02-01T07:01:15;101895.22;;;3.78;100.00
74103;BME280;62853;46.166;3.640;2023-02-01T07:03:41;101891.75;;;3.77;100.00
74103;BME280;62853;46.166;3.640;2023-02-01T07:06:07;101905.72;;;3.73;100.00
74103;BME280;62853;46.166;3.640;2023-02-01T07:08:35;101895.34;;;3.64;100.00
74103;BME280;62853;46.166;3.640;2023-02-01T07:11:09;101897.00;;;3.74;100.00
74103;BME280;62853;46.166;3.640;2023-02-01T07:13:36;101884.06;;;3.65;100.00
74103;BME280;62853;46.166;3.640;2023-02-01T07:16:03;101898.97;;;3.49;100.00
74103;BME280;62853;46.166;3.640;2023-02-01T07:18:29;101902.47;;;3.46;100.00
74103;BME280;62853;46.166;3.640;2023-02-01T07:20:55;101899.84;;;3.48;100.00
74103;BME280;62853;46.166;3.640;2023-02-01T07:23:21;101888.66;;;3.37;100.00
74103;BME280;62853;46.166;3.640;2023-02-01T07:25:47;101897.38;;;3.34;100.00
74103;BME280;62853;46.166;3.640;2023-02-01T07:28:13;101899.91;;;3.37;100.00
74103;BME280;62853;46.166;3.640;2023-02-01T07:30:38;101894.69;;;3.42;100.00
74103;BME280;62853;46.166;3.640;2023-02-01T07:33:04;101892.91;;;3.45;100.00
74103;BME280;62853;46.166;3.640;2023-02-01T07:35:30;101902.50;;;3.42;100.00
74103;BME280;62853;46.166;3.640;2023-02-01T07:37:57;101894.72;;;3.37;100.00
74103;BME280;62853;46.166;3.640;2023-02-01T07:40:23;101910.34;;;3.37;100.00
74103;BME280;62853;46.166;3.640;2023-02-01T07:42:54;101908.66;;;3.30;100.00
74103;BME280;62853;46.166;3.640;2023-02-01T07:45:20;101918.22;;;3.32;100.00
74103;BME280;62853;46.166;3.640;2023-02-01T07:47:45;101911.25;;;3.34;100.00
74103;BME280;62853;46.166;3.640;2023-02-01T07:50:11;101909.59;;;3.23;100.00
74103;BME280;62853;46.166;3.640;2023-02-01T07:52:36;101906.09;;;3.25;100.00
74103;BME280;62853;46.166;3.640;2023-02-01T07:55:01;101920.81;;;3.32;100.00
74103;BME280;62853;46.166;3.640;2023-02-01T07:57:27;101920.84;;;3.23;100.00
74103;BME280;62853;46.166;3.640;2023-02-01T07:59:52;101915.63;;;3.26;100.00
74103;BME280;62853;46.166;3.640;2023-02-01T08:02:36;101909.50;;;3.32;100.00
74103;BME280;62853;46.166;3.640;2023-02-01T08:05:01;101913.00;;;3.32;100.00
74103;BME280;62853;46.166;3.640;2023-02-01T08:07:26;101911.22;;;3.39;100.00
74103;BME280;62853;46.166;3.640;2023-02-01T08:09:52;101914.59;;;3.49;100.00
74103;BME280;62853;46.166;3.640;2023-02-01T08:12:17;101925.88;;;3.51;100.00
74103;BME280;62853;46.166;3.640;2023-02-01T08:14:43;101922.38;;;3.50;100.00
74103;BME280;62853;46.166;3.640;2023-02-01T08:17:08;101936.25;;;3.56;100.00
74103;BME280;62853;46.166;3.640;2023-02-01T08:19:33;101938.81;;;3.62;100.00
74103;BME280;62853;46.166;3.640;2023-02-01T08:21:59;101940.41;;;3.80;100.00
74103;BME280;62853;46.166;3.640;2023-02-01T08:24:24;101938.66;;;3.79;100.00
74103;BME280;62853;46.166;3.640;2023-02-01T08:26:50;101933.41;;;3.83;100.00
74103;BME280;62853;46.166;3.640;2023-02-01T08:29:15;101930.00;;;3.77;100.00
74103;BME280;62853;46.166;3.640;2023-02-01T08:31:41;101921.22;;;3.87;100.00
74103;BME280;62853;46.166;3.640;2023-02-01T08:34:07;101932.53;;;3.83;100.00
74103;BME280;62853;46.166;3.640;2023-02-01T08:36:34;101928.16;;;3.88;100.00
74103;BME280;62853;46.166;3.640;2023-02-01T08:38:59;101934.09;;;4.02;100.00
74103;BME280;62853;46.166;3.640;2023-02-01T08:41:28;101940.91;;;4.16;100.00
74103;BME280;62853;46.166;3.640;2023-02-01T08:43:54;101934.69;;;4.27;100.00
74103;BME280;62853;46.166;3.640;2023-02-01T08:46:21;101934.53;;;4.41;100.00
74103;BME280;62853;46.166;3.640;2023-02-01T08:48:47;101934.41;;;4.54;100.00
74103;BME280;62853;46.166;3.640;2023-02-01T08:51:14;101939.44;;;4.69;100.00
74103;BME280;62853;46.166;3.640;2023-02-01T08:53:41;101932.28;;;4.83;100.00
74103;BME280;62853;46.166;3.640;2023-02-01T08:56:07;101929.69;;;4.82;100.00
74103;BME280;62853;46.166;3.640;2023-02-01T08:58:33;101921.69;;;4.96;100.00
74103;BME280;62853;46.166;3.640;2023-02-01T09:01:06;101925.81;;;5.11;100.00
74103;BME280;62853;46.166;3.640;2023-02-01T09:03:32;101914.31;;;5.22;100.00
74103;BME280;62853;46.166;3.640;2023-02-01T09:06:05;101904.66;;;5.28;100.00
74103;BME280;62853;46.166;3.640;2023-02-01T09:08:31;101905.44;;;5.33;100.00
74103;BME280;62853;46.166;3.640;2023-02-01T09:11:11;101891.56;;;5.29;100.00
74103;BME280;62853;46.166;3.640;2023-02-01T09:13:37;101897.50;;;5.40;100.00
74103;BME280;62853;46.166;3.640;2023-02-01T09:16:03;101888.03;;;5.33;100.00
74103;BME280;62853;46.166;3.640;2023-02-01T09:18:29;101881.25;;;5.23;100.00
74103;BME280;62853;46.166;3.640;2023-02-01T09:20:54;101881.28;;;5.20;100.00
74103;BME280;62853;46.166;3.640;2023-02-01T09:23:20;101894.09;;;5.35;100.00
74103;BME280;62853;46.166;3.640;2023-02-01T09:25:46;101879.94;;;5.50;100.00
74103;BME280;62853;46.166;3.640;2023-02-01T09:28:11;101878.00;;;5.62;100.00
74103;BME280;62853;46.166;3.640;2023-02-01T09:30:37;101889.13;;;5.71;100.00
74103;BME280;62853;46.166;3.640;2023-02-01T09:33:03;101875.94;;;5.79;100.00
74103;BME280;62853;46.166;3.640;2023-02-01T09:35:29;101864.72;;;5.72;100.00
74103;BME280;62853;46.166;3.640;2023-02-01T09:37:54;101872.34;;;5.85;100.00
74103;BME280;62853;46.166;3.640;2023-02-01T09:40:20;101872.50;;;5.77;100.00
74103;BME280;62853;46.166;3.640;2023-02-01T09:43:13;101872.97;;;6.01;100.00
74103;BME280;62853;46.166;3.640;2023-02-01T09:48:30;101878.13;;;6.47;100.00
74103;BME280;62853;46.166;3.640;2023-02-01T09:50:59;101876.91;;;6.64;100.00
74103;BME280;62853;46.166;3.640;2023-02-01T09:53:40;101880.88;;;6.82;100.00
74103;BME280;62853;46.166;3.640;2023-02-01T09:56:21;101887.56;;;6.95;100.00
74103;BME280;62853;46.166;3.640;2023-02-01T09:58:54;101880.56;;;6.96;100.00
74103;BME280;62853;46.166;3.640;2023-02-01T10:01:22;101883.50;;;6.82;100.00
74103;BME280;62853;46.166;3.640;2023-02-01T10:03:49;101877.66;;;6.69;100.00
74103;BME280;62853;46.166;3.640;2023-02-01T10:06:25;101871.63;;;6.65;100.00
74103;BME280;62853;46.166;3.640;2023-02-01T10:09:11;101869.03;;;6.64;100.00
74103;BME280;62853;46.166;3.640;2023-02-01T10:12:00;101867.47;;;6.57;100.00
74103;BME280;62853;46.166;3.640;2023-02-01T10:14:51;101882.84;;;6.72;100.00
74103;BME280;62853;46.166;3.640;2023-02-01T10:20:07;101880.91;;;7.18;100.00
74103;BME280;62853;46.166;3.640;2023-02-01T10:22:42;101883.81;;;7.43;100.00
74103;BME280;62853;46.166;3.640;2023-02-01T10:25:23;101871.59;;;7.76;100.00
74103;BME280;62853;46.166;3.640;2023-02-01T10:27:51;101893.44;;;8.10;100.00
74103;BME280;62853;46.166;3.640;2023-02-01T10:30:25;101894.25;;;8.43;100.00
74103;BME280;62853;46.166;3.640;2023-02-01T10:33:23;101900.03;;;8.56;100.00
74103;BME280;62853;46.166;3.640;2023-02-01T10:38:34;101901.03;;;8.52;100.00
74103;BME280;62853;46.166;3.640;2023-02-01T10:41:20;101897.56;;;8.50;100.00
74103;BME280;62853;46.166;3.640;2023-02-01T10:43:50;101914.94;;;8.55;100.00
74103;BME280;62853;46.166;3.640;2023-02-01T10:46:18;101913.47;;;8.45;100.00
74103;BME280;62853;46.166;3.640;2023-02-01T10:48:43;101901.34;;;8.39;100.00
74103;BME280;62853;46.166;3.640;2023-02-01T10:51:26;101905.03;;;8.32;100.00
74103;BME280;62853;46.166;3.640;2023-02-01T10:54:03;101892.94;;;8.28;100.00
74103;BME280;62853;46.166;3.640;2023-02-01T10:56:29;101881.41;;;8.32;100.00
74103;BME280;62853;46.166;3.640;2023-02-01T10:59:04;101897.69;;;8.47;100.00
74103;BME280;62853;46.166;3.640;2023-02-01T11:01:41;101892.22;;;8.53;100.00
74103;BME280;62853;46.166;3.640;2023-02-01T11:04:10;101882.56;;;8.55;100.00
74103;BME280;62853;46.166;3.640;2023-02-01T11:06:44;101892.59;;;8.70;100.00
74103;BME280;62853;46.166;3.640;2023-02-01T11:09:19;101875.16;;;8.68;100.00
74103;BME280;62853;46.166;3.640;2023-02-01T11:14:18;101872.28;;;8.47;100.00
74103;BME280;62853;46.166;3.640;2023-02-01T11:16:50;101868.91;;;8.42;100.00
74103;BME280;62853;46.166;3.640;2023-02-01T11:19:17;101859.50;;;8.35;100.00
74103;BME280;62853;46.166;3.640;2023-02-01T11:21:44;101866.69;;;8.28;100.00
74103;BME280;62853;46.166;3.640;2023-02-01T11:24:22;101849.28;;;8.24;100.00
74103;BME280;62853;46.166;3.640;2023-02-01T11:26:49;101839.03;;;8.16;100.00
74103;BME280;62853;46.166;3.640;2023-02-01T11:29:17;101852.31;;;8.10;100.00
74103;BME280;62853;46.166;3.640;2023-02-01T11:31:45;101854.13;;;8.08;100.00
74103;BME280;62853;46.166;3.640;2023-02-01T11:34:21;101844.44;;;8.10;100.00
74103;BME280;62853;46.166;3.640;2023-02-01T11:36:49;101841.06;;;8.05;100.00
74103;BME280;62853;46.166;3.640;2023-02-01T11:41:43;101829.53;;;8.11;100.00
74103;BME280;62853;46.166;3.640;2023-02-01T11:44:22;101817.91;;;8.19;100.00
74103;BME280;62853;46.166;3.640;2023-02-01T11:46:51;101832.13;;;8.44;100.00
74103;BME280;62853;46.166;3.640;2023-02-01T11:49:25;101856.75;;;8.38;100.00
74103;BME280;62853;46.166;3.640;2023-02-01T12:05:58;101833.38;;;8.30;100.00
74103;BME280;62853;46.166;3.640;2023-02-01T12:08:37;101822.00;;;8.30;100.00
74103;BME280;62853;46.166;3.640;2023-02-01T12:11:25;101819.59;;;8.22;100.00
74103;BME280;62853;46.166;3.640;2023-02-01T12:14:40;101809.16;;;8.20;100.00
74103;BME280;62853;46.166;3.640;2023-02-01T12:31:48;101810.06;;;7.88;100.00
74103;BME280;62853;46.166;3.640;2023-02-01T12:42:28;101825.19;;;8.11;100.00
74103;BME280;62853;46.166;3.640;2023-02-01T12:45:13;101803.94;;;8.19;100.00
74103;BME280;62853;46.166;3.640;2023-02-01T12:47:50;101810.13;;;8.18;100.00
74103;BME280;62853;46.166;3.640;2023-02-01T12:50:22;101811.94;;;8.14;100.00
74103;BME280;62853;46.166;3.640;2023-02-01T12:52:52;101806.53;;;8.20;100.00
74103;BME280;62853;46.166;3.640;2023-02-01T12:55:34;101802.16;;;8.19;100.00
74103;BME280;62853;46.166;3.640;2023-02-01T12:58:13;101801.06;;;8.28;100.00
74103;BME280;62853;46.166;3.640;2023-02-01T13:00:49;101803.53;;;8.33;100.00
74103;BME280;62853;46.166;3.640;2023-02-01T13:06:04;101802.63;;;8.34;100.00
74103;BME280;62853;46.166;3.640;2023-02-01T13:08:38;101807.03;;;8.33;100.00
74103;BME280;62853;46.166;3.640;2023-02-01T13:11:26;101809.63;;;8.35;100.00
74103;BME280;62853;46.166;3.640;2023-02-01T13:14:04;101796.63;;;8.30;100.00
74103;BME280;62853;46.166;3.640;2023-02-01T13:16:32;101793.19;;;8.28;100.00
74103;BME280;62853;46.166;3.640;2023-02-01T13:19:22;101789.69;;;8.28;100.00
74103;BME280;62853;46.166;3.640;2023-02-01T13:21:55;101782.00;;;8.22;100.00
74103;BME280;62853;46.166;3.640;2023-02-01T13:24:53;101795.78;;;8.30;100.00
74103;BME280;62853;46.166;3.640;2023-02-01T13:27:19;101793.69;;;8.39;100.00
74103;BME280;62853;46.166;3.640;2023-02-01T13:29:57;101783.16;;;8.41;100.00
74103;BME280;62853;46.166;3.640;2023-02-01T13:32:43;101786.75;;;8.38;100.00
74103;BME280;62853;46.166;3.640;2023-02-01T13:38:38;101792.94;;;8.66;100.00
74103;BME280;62853;46.166;3.640;2023-02-01T13:43:39;101782.53;;;8.63;100.00
74103;BME280;62853;46.166;3.640;2023-02-01T13:46:10;101809.41;;;8.71;100.00
74103;BME280;62853;46.166;3.640;2023-02-01T13:48:48;101786.34;;;8.81;100.00
74103;BME280;62853;46.166;3.640;2023-02-01T13:51:15;101798.41;;;8.86;100.00
74103;BME280;62853;46.166;3.640;2023-02-01T13:53:47;101800.28;;;8.83;100.00
74103;BME280;62853;46.166;3.640;2023-02-01T13:56:18;101800.81;;;8.66;100.00
74103;BME280;62853;46.166;3.640;2023-02-01T13:58:46;101794.13;;;8.55;100.00
74103;BME280;62853;46.166;3.640;2023-02-01T14:03:56;101803.16;;;8.47;100.00
74103;BME280;62853;46.166;3.640;2023-02-01T14:09:18;101807.75;;;8.38;100.00
74103;BME280;62853;46.166;3.640;2023-02-01T14:16:39;101815.78;;;8.32;100.00
74103;BME280;62853;46.166;3.640;2023-02-01T14:19:09;101816.94;;;8.24;100.00
74103;BME280;62853;46.166;3.640;2023-02-01T14:21:46;101818.00;;;8.18;100.00
74103;BME280;62853;46.166;3.640;2023-02-01T14:24:22;101810.88;;;8.22;100.00
74103;BME280;62853;46.166;3.640;2023-02-01T14:26:53;101818.84;;;8.18;100.00
74103;BME280;62853;46.166;3.640;2023-02-01T14:29:36;101826.59;;;8.23;100.00
74103;BME280;62853;46.166;3.640;2023-02-01T14:47:43;101816.38;;;8.12;100.00
74103;BME280;62853;46.166;3.640;2023-02-01T14:50:27;101823.66;;;8.02;100.00
74103;BME280;62853;46.166;3.640;2023-02-01T15:01:28;101831.94;;;7.87;100.00
74103;BME280;62853;46.166;3.640;2023-02-01T15:03:58;101837.34;;;7.82;100.00
74103;BME280;62853;46.166;3.640;2023-02-01T15:06:55;101824.34;;;7.78;100.00
74103;BME280;62853;46.166;3.640;2023-02-01T15:09:32;101839.19;;;7.77;100.00
74103;BME280;62853;46.166;3.640;2023-02-01T15:12:19;101830.53;;;7.75;100.00